In Rescue
 
Open Full Screen Window  High Contrast Mode
Wind Gusting 29 knots
20
March 01, 2024 2:20 PM CST
Weather Information
Wind Direction
  180 °
Wind Speed
  20 kt (23 mph)
Wind Gust
  29 kt (33 mph)
Altimeter
29.87 in
Visibility
10 SM
Temperature
11° C
52° F
Dewpoint
00° C
32° F
Humidity
47%
Sky Condition
Clear
VFR

METAR KFKA 012020Z AUTO 18020G29KT 10SM CLR 11/00 A2987 RMK AO2

FAA Disclaimer: The data displayed is for advisory purposes only and is not to be used for flight planning or operations.